sensor_id;sensor_type;location;lat;lon;timestamp;temperature;humidity
4596;DHT22;2310;49.978;8.742;2024-03-06T00:02:50;9.70;99.90
4596;DHT22;2310;49.978;8.742;2024-03-06T00:06:51;9.70;99.90
4596;DHT22;2310;49.978;8.742;2024-03-06T00:10:53;9.70;99.90
4596;DHT22;2310;49.978;8.742;2024-03-06T00:14:55;9.80;99.90
4596;DHT22;2310;49.978;8.742;2024-03-06T00:18:56;9.80;99.90
4596;DHT22;2310;49.978;8.742;2024-03-06T00:22:58;9.90;99.90
4596;DHT22;2310;49.978;8.742;2024-03-06T00:27:00;9.80;99.90
4596;DHT22;2310;49.978;8.742;2024-03-06T00:31:03;9.60;99.90
4596;DHT22;2310;49.978;8.742;2024-03-06T00:35:06;9.60;99.90
4596;DHT22;2310;49.978;8.742;2024-03-06T00:39:07;9.60;99.90
4596;DHT22;2310;49.978;8.742;2024-03-06T00:43:09;9.60;99.90
4596;DHT22;2310;49.978;8.742;2024-03-06T00:47:10;9.60;99.90
4596;DHT22;2310;49.978;8.742;2024-03-06T00:51:11;9.60;99.90
4596;DHT22;2310;49.978;8.742;2024-03-06T00:55:13;9.50;99.90
4596;DHT22;2310;49.978;8.742;2024-03-06T00:59:14;9.50;99.90
4596;DHT22;2310;49.978;8.742;2024-03-06T01:03:16;9.50;99.90
4596;DHT22;2310;49.978;8.742;2024-03-06T01:07:17;9.40;99.90
4596;DHT22;2310;49.978;8.742;2024-03-06T01:11:19;9.30;99.90
4596;DHT22;2310;49.978;8.742;2024-03-06T01:15:21;9.30;99.90
4596;DHT22;2310;49.978;8.742;2024-03-06T01:19:23;9.30;99.90
4596;DHT22;2310;49.978;8.742;2024-03-06T01:23:24;9.20;99.90
4596;DHT22;2310;49.978;8.742;2024-03-06T01:27:26;9.00;99.90
4596;DHT22;2310;49.978;8.742;2024-03-06T01:31:27;8.90;99.90
4596;DHT22;2310;49.978;8.742;2024-03-06T01:35:29;8.90;99.90
4596;DHT22;2310;49.978;8.742;2024-03-06T01:39:30;8.90;99.90
4596;DHT22;2310;49.978;8.742;2024-03-06T01:43:36;8.80;99.90
4596;DHT22;2310;49.978;8.742;2024-03-06T01:47:37;8.80;99.90
4596;DHT22;2310;49.978;8.742;2024-03-06T01:51:40;8.70;99.90
4596;DHT22;2310;49.978;8.742;2024-03-06T01:55:42;8.60;99.90
4596;DHT22;2310;49.978;8.742;2024-03-06T01:59:44;8.50;99.90
4596;DHT22;2310;49.978;8.742;2024-03-06T02:03:45;8.40;99.90
4596;DHT22;2310;49.978;8.742;2024-03-06T02:07:47;8.40;99.90
4596;DHT22;2310;49.978;8.742;2024-03-06T02:11:48;8.40;99.90
4596;DHT22;2310;49.978;8.742;2024-03-06T02:15:51;8.40;99.90
4596;DHT22;2310;49.978;8.742;2024-03-06T02:19:52;8.40;99.90
4596;DHT22;2310;49.978;8.742;2024-03-06T02:23:54;8.50;99.90
4596;DHT22;2310;49.978;8.742;2024-03-06T02:27:56;8.50;99.90
4596;DHT22;2310;49.978;8.742;2024-03-06T02:31:57;8.40;99.90
4596;DHT22;2310;49.978;8.742;2024-03-06T02:35:59;8.40;99.90
4596;DHT22;2310;49.978;8.742;2024-03-06T02:40:01;8.20;99.90
4596;DHT22;2310;49.978;8.742;2024-03-06T02:44:02;8.10;99.90
4596;DHT22;2310;49.978;8.742;2024-03-06T02:48:04;8.00;99.90
4596;DHT22;2310;49.978;8.742;2024-03-06T02:52:06;8.00;99.90
4596;DHT22;2310;49.978;8.742;2024-03-06T02:56:07;8.00;99.90
4596;DHT22;2310;49.978;8.742;2024-03-06T03:00:09;8.00;99.90
4596;DHT22;2310;49.978;8.742;2024-03-06T03:04:13;7.90;99.90
4596;DHT22;2310;49.978;8.742;2024-03-06T03:08:14;7.90;99.90
4596;DHT22;2310;49.978;8.742;2024-03-06T03:12:17;8.00;99.90
4596;DHT22;2310;49.978;8.742;2024-03-06T03:16:19;8.00;99.90
4596;DHT22;2310;49.978;8.742;2024-03-06T03:20:21;8.00;99.90
4596;DHT22;2310;49.978;8.742;2024-03-06T03:24:22;7.90;99.90
4596;DHT22;2310;49.978;8.742;2024-03-06T03:28:25;7.70;99.90
4596;DHT22;2310;49.978;8.742;2024-03-06T03:32:26;7.60;99.90
4596;DHT22;2310;49.978;8.742;2024-03-06T03:36:28;7.60;99.90
4596;DHT22;2310;49.978;8.742;2024-03-06T03:40:29;7.60;99.90
4596;DHT22;2310;49.978;8.742;2024-03-06T03:44:30;7.60;99.90
4596;DHT22;2310;49.978;8.742;2024-03-06T03:48:32;7.70;99.90
4596;DHT22;2310;49.978;8.742;2024-03-06T03:52:35;7.70;99.90
4596;DHT22;2310;49.978;8.742;2024-03-06T03:56:37;7.50;99.90
4596;DHT22;2310;49.978;8.742;2024-03-06T04:00:38;7.40;99.90
4596;DHT22;2310;49.978;8.742;2024-03-06T04:04:40;7.30;99.90
4596;DHT22;2310;49.978;8.742;2024-03-06T04:08:41;7.20;99.90
4596;DHT22;2310;49.978;8.742;2024-03-06T04:12:43;7.20;99.90
4596;DHT22;2310;49.978;8.742;2024-03-06T04:16:47;7.10;99.90
4596;DHT22;2310;49.978;8.742;2024-03-06T04:20:49;7.20;99.90
4596;DHT22;2310;49.978;8.742;2024-03-06T04:24:50;7.30;99.90
4596;DHT22;2310;49.978;8.742;2024-03-06T04:28:52;7.30;99.90
4596;DHT22;2310;49.978;8.742;2024-03-06T04:32:53;7.20;99.90
4596;DHT22;2310;49.978;8.742;2024-03-06T04:36:55;7.20;99.90
4596;DHT22;2310;49.978;8.742;2024-03-06T04:40:56;7.10;99.90
4596;DHT22;2310;49.978;8.742;2024-03-06T04:44:58;7.00;99.90
4596;DHT22;2310;49.978;8.742;2024-03-06T04:48:59;7.10;99.90
4596;DHT22;2310;49.978;8.742;2024-03-06T04:53:00;7.10;99.90
4596;DHT22;2310;49.978;8.742;2024-03-06T04:57:02;7.10;99.90
4596;DHT22;2310;49.978;8.742;2024-03-06T05:01:03;7.00;99.90
4596;DHT22;2310;49.978;8.742;2024-03-06T05:05:05;6.90;99.90
4596;DHT22;2310;49.978;8.742;2024-03-06T05:09:24;6.90;99.90
4596;DHT22;2310;49.978;8.742;2024-03-06T05:13:43;7.00;99.90
4596;DHT22;2310;49.978;8.742;2024-03-06T05:18:03;7.00;99.90
4596;DHT22;2310;49.978;8.742;2024-03-06T05:22:22;7.00;99.90
4596;DHT22;2310;49.978;8.742;2024-03-06T05:26:42;7.20;99.90
4596;DHT22;2310;49.978;8.742;2024-03-06T05:31:15;7.20;99.90
4596;DHT22;2310;49.978;8.742;2024-03-06T05:35:27;7.20;99.90
4596;DHT22;2310;49.978;8.742;2024-03-06T05:39:48;7.20;99.90
4596;DHT22;2310;49.978;8.742;2024-03-06T05:44:07;7.20;99.90
4596;DHT22;2310;49.978;8.742;2024-03-06T05:48:27;7.30;99.90
4596;DHT22;2310;49.978;8.742;2024-03-06T05:52:47;7.20;99.90
4596;DHT22;2310;49.978;8.742;2024-03-06T05:57:07;7.20;99.90
4596;DHT22;2310;49.978;8.742;2024-03-06T06:01:26;7.10;99.90
4596;DHT22;2310;49.978;8.742;2024-03-06T06:05:28;7.20;99.90
4596;DHT22;2310;49.978;8.742;2024-03-06T06:09:29;7.20;99.90
4596;DHT22;2310;49.978;8.742;2024-03-06T06:13:31;7.30;99.90
4596;DHT22;2310;49.978;8.742;2024-03-06T06:17:33;7.30;99.90
4596;DHT22;2310;49.978;8.742;2024-03-06T06:21:35;7.30;99.90
4596;DHT22;2310;49.978;8.742;2024-03-06T06:25:37;7.40;99.90
4596;DHT22;2310;49.978;8.742;2024-03-06T06:29:38;7.40;99.90
4596;DHT22;2310;49.978;8.742;2024-03-06T06:33:39;7.50;99.90
4596;DHT22;2310;49.978;8.742;2024-03-06T06:37:41;7.50;99.90
4596;DHT22;2310;49.978;8.742;2024-03-06T06:41:42;7.70;99.90
4596;DHT22;2310;49.978;8.742;2024-03-06T06:45:44;7.70;99.90
4596;DHT22;2310;49.978;8.742;2024-03-06T06:49:45;7.80;99.90
4596;DHT22;2310;49.978;8.742;2024-03-06T06:53:47;7.90;99.90
4596;DHT22;2310;49.978;8.742;2024-03-06T06:57:49;7.80;99.90
4596;DHT22;2310;49.978;8.742;2024-03-06T07:01:52;8.00;99.90
4596;DHT22;2310;49.978;8.742;2024-03-06T07:05:53;8.10;99.90
4596;DHT22;2310;49.978;8.742;2024-03-06T07:09:55;8.30;99.90
4596;DHT22;2310;49.978;8.742;2024-03-06T07:13:56;8.20;99.90
4596;DHT22;2310;49.978;8.742;2024-03-06T07:17:57;8.30;99.90
4596;DHT22;2310;49.978;8.742;2024-03-06T07:21:59;8.90;99.90
4596;DHT22;2310;49.978;8.742;2024-03-06T07:26:00;9.30;99.90
4596;DHT22;2310;49.978;8.742;2024-03-06T07:30:03;9.10;99.90
4596;DHT22;2310;49.978;8.742;2024-03-06T07:34:07;9.30;99.90
4596;DHT22;2310;49.978;8.742;2024-03-06T07:38:09;9.20;99.90
4596;DHT22;2310;49.978;8.742;2024-03-06T07:42:12;9.30;99.90
4596;DHT22;2310;49.978;8.742;2024-03-06T07:46:14;9.60;99.90
4596;DHT22;2310;49.978;8.742;2024-03-06T07:50:15;9.40;99.90
4596;DHT22;2310;49.978;8.742;2024-03-06T07:54:18;9.50;99.90
4596;DHT22;2310;49.978;8.742;2024-03-06T07:58:20;9.60;99.90
4596;DHT22;2310;49.978;8.742;2024-03-06T08:02:22;9.40;99.90
4596;DHT22;2310;49.978;8.742;2024-03-06T08:06:23;10.30;99.90
4596;DHT22;2310;49.978;8.742;2024-03-06T08:10:25;10.30;99.90
4596;DHT22;2310;49.978;8.742;2024-03-06T08:14:27;10.40;99.90
4596;DHT22;2310;49.978;8.742;2024-03-06T08:18:28;10.50;99.90
4596;DHT22;2310;49.978;8.742;2024-03-06T08:22:30;10.50;99.90
4596;DHT22;2310;49.978;8.742;2024-03-06T08:26:31;10.60;99.90
4596;DHT22;2310;49.978;8.742;2024-03-06T08:30:33;10.50;99.90
4596;DHT22;2310;49.978;8.742;2024-03-06T08:34:34;10.70;99.90
4596;DHT22;2310;49.978;8.742;2024-03-06T08:38:35;10.70;99.90
4596;DHT22;2310;49.978;8.742;2024-03-06T08:42:37;10.90;99.90
4596;DHT22;2310;49.978;8.742;2024-03-06T08:50:53;10.70;99.90
4596;DHT22;2310;49.978;8.742;2024-03-06T08:54:55;10.60;99.90
4596;DHT22;2310;49.978;8.742;2024-03-06T08:58:56;10.50;99.90
4596;DHT22;2310;49.978;8.742;2024-03-06T09:02:57;10.50;99.90
4596;DHT22;2310;49.978;8.742;2024-03-06T09:06:59;10.60;99.90
4596;DHT22;2310;49.978;8.742;2024-03-06T09:11:00;10.50;99.90
4596;DHT22;2310;49.978;8.742;2024-03-06T09:15:03;10.40;99.90
4596;DHT22;2310;49.978;8.742;2024-03-06T09:19:05;10.40;99.90
4596;DHT22;2310;49.978;8.742;2024-03-06T09:23:06;10.40;99.90
4596;DHT22;2310;49.978;8.742;2024-03-06T09:27:08;10.30;99.90
4596;DHT22;2310;49.978;8.742;2024-03-06T09:31:09;10.30;99.90
4596;DHT22;2310;49.978;8.742;2024-03-06T09:35:10;10.40;99.90
4596;DHT22;2310;49.978;8.742;2024-03-06T09:39:18;10.70;99.90
4596;DHT22;2310;49.978;8.742;2024-03-06T09:43:26;10.80;99.90
4596;DHT22;2310;49.978;8.742;2024-03-06T09:47:31;10.90;99.90
4596;DHT22;2310;49.978;8.742;2024-03-06T09:51:34;11.00;99.90
4596;DHT22;2310;49.978;8.742;2024-03-06T09:55:36;11.20;99.90
4596;DHT22;2310;49.978;8.742;2024-03-06T09:59:39;11.40;99.90
4596;DHT22;2310;49.978;8.742;2024-03-06T10:03:42;11.80;99.90
4596;DHT22;2310;49.978;8.742;2024-03-06T10:07:44;12.00;99.90
4596;DHT22;2310;49.978;8.742;2024-03-06T10:11:47;12.10;99.90
4596;DHT22;2310;49.978;8.742;2024-03-06T10:16:03;12.10;99.90
4596;DHT22;2310;49.978;8.742;2024-03-06T10:20:16;12.20;99.90
4596;DHT22;2310;49.978;8.742;2024-03-06T10:24:08;12.60;99.90
4596;DHT22;2310;49.978;8.742;2024-03-06T10:28:11;13.10;99.90
4596;DHT22;2310;49.978;8.742;2024-03-06T10:32:18;13.60;99.90
4596;DHT22;2310;49.978;8.742;2024-03-06T10:36:21;13.40;99.90
4596;DHT22;2310;49.978;8.742;2024-03-06T10:40:24;13.20;99.90
4596;DHT22;2310;49.978;8.742;2024-03-06T10:44:26;12.90;99.90
4596;DHT22;2310;49.978;8.742;2024-03-06T10:48:28;12.60;99.90
4596;DHT22;2310;49.978;8.742;2024-03-06T10:56:45;12.50;99.90
4596;DHT22;2310;49.978;8.742;2024-03-06T11:00:48;12.70;99.90
4596;DHT22;2310;49.978;8.742;2024-03-06T11:04:51;12.60;99.90
4596;DHT22;2310;49.978;8.742;2024-03-06T11:08:53;12.70;99.90
4596;DHT22;2310;49.978;8.742;2024-03-06T11:12:54;12.70;99.90
4596;DHT22;2310;49.978;8.742;2024-03-06T11:34:16;13.30;99.90
4596;DHT22;2310;49.978;8.742;2024-03-06T11:38:19;13.30;99.90
4596;DHT22;2310;49.978;8.742;2024-03-06T11:42:32;13.20;99.90
4596;DHT22;2310;49.978;8.742;2024-03-06T11:46:47;13.50;99.90
4596;DHT22;2310;49.978;8.742;2024-03-06T11:50:50;13.40;99.90
4596;DHT22;2310;49.978;8.742;2024-03-06T11:54:53;13.30;99.90
4596;DHT22;2310;49.978;8.742;2024-03-06T11:58:55;13.60;99.90
4596;DHT22;2310;49.978;8.742;2024-03-06T12:02:56;13.70;99.90
4596;DHT22;2310;49.978;8.742;2024-03-06T12:06:59;13.80;99.90
4596;DHT22;2310;49.978;8.742;2024-03-06T12:11:01;14.40;99.90
4596;DHT22;2310;49.978;8.742;2024-03-06T12:15:03;14.80;99.90
4596;DHT22;2310;49.978;8.742;2024-03-06T12:19:05;14.60;97.00
4596;DHT22;2310;49.978;8.742;2024-03-06T12:23:07;14.10;99.90
4596;DHT22;2310;49.978;8.742;2024-03-06T12:27:08;14.10;99.90
4596;DHT22;2310;49.978;8.742;2024-03-06T12:31:11;13.70;99.90
4596;DHT22;2310;49.978;8.742;2024-03-06T12:35:23;13.40;99.90
4596;DHT22;2310;49.978;8.742;2024-03-06T12:39:18;13.10;99.90
4596;DHT22;2310;49.978;8.742;2024-03-06T12:43:22;13.30;99.90
4596;DHT22;2310;49.978;8.742;2024-03-06T12:47:23;13.20;99.90
4596;DHT22;2310;49.978;8.742;2024-03-06T12:51:24;13.20;99.90
4596;DHT22;2310;49.978;8.742;2024-03-06T12:55:26;12.90;99.90
4596;DHT22;2310;49.978;8.742;2024-03-06T12:59:27;13.00;99.90
4596;DHT22;2310;49.978;8.742;2024-03-06T13:03:28;13.10;99.90
4596;DHT22;2310;49.978;8.742;2024-03-06T13:07:30;13.10;99.90
4596;DHT22;2310;49.978;8.742;2024-03-06T13:11:32;12.80;99.90
4596;DHT22;2310;49.978;8.742;2024-03-06T13:15:34;12.80;99.90
4596;DHT22;2310;49.978;8.742;2024-03-06T13:19:35;12.70;99.90
4596;DHT22;2310;49.978;8.742;2024-03-06T13:23:37;12.80;99.90
4596;DHT22;2310;49.978;8.742;2024-03-06T13:27:39;12.80;99.90
4596;DHT22;2310;49.978;8.742;2024-03-06T13:31:40;12.90;99.90
4596;DHT22;2310;49.978;8.742;2024-03-06T13:35:47;13.00;99.90
4596;DHT22;2310;49.978;8.742;2024-03-06T13:39:55;12.80;99.90
4596;DHT22;2310;49.978;8.742;2024-03-06T13:43:58;12.80;99.90
4596;DHT22;2310;49.978;8.742;2024-03-06T13:47:59;12.90;99.90
4596;DHT22;2310;49.978;8.742;2024-03-06T13:52:01;12.90;99.90
4596;DHT22;2310;49.978;8.742;2024-03-06T13:56:04;12.80;99.90
4596;DHT22;2310;49.978;8.742;2024-03-06T14:00:08;12.80;99.90
4596;DHT22;2310;49.978;8.742;2024-03-06T14:04:11;13.00;99.90
4596;DHT22;2310;49.978;8.742;2024-03-06T14:08:13;13.20;99.90
4596;DHT22;2310;49.978;8.742;2024-03-06T14:12:15;13.10;99.90
4596;DHT22;2310;49.978;8.742;2024-03-06T14:16:17;13.10;99.90
4596;DHT22;2310;49.978;8.742;2024-03-06T14:20:18;13.00;99.90
4596;DHT22;2310;49.978;8.742;2024-03-06T14:24:20;13.20;99.90
4596;DHT22;2310;49.978;8.742;2024-03-06T14:28:21;13.20;99.90
4596;DHT22;2310;49.978;8.742;2024-03-06T14:32:23;13.30;99.90
4596;DHT22;2310;49.978;8.742;2024-03-06T14:36:25;13.20;99.90
4596;DHT22;2310;49.978;8.742;2024-03-06T14:40:27;13.00;99.90
4596;DHT22;2310;49.978;8.742;2024-03-06T14:44:28;12.80;99.90
4596;DHT22;2310;49.978;8.742;2024-03-06T14:48:30;12.90;99.90
4596;DHT22;2310;49.978;8.742;2024-03-06T14:52:31;12.70;99.90
4596;DHT22;2310;49.978;8.742;2024-03-06T14:56:32;12.60;99.90
4596;DHT22;2310;49.978;8.742;2024-03-06T15:00:34;12.60;99.90
4596;DHT22;2310;49.978;8.742;2024-03-06T15:04:42;12.60;99.90
4596;DHT22;2310;49.978;8.742;2024-03-06T15:08:44;12.80;99.90
4596;DHT22;2310;49.978;8.742;2024-03-06T15:12:46;12.80;99.90
4596;DHT22;2310;49.978;8.742;2024-03-06T15:16:47;12.50;99.90
4596;DHT22;2310;49.978;8.742;2024-03-06T15:20:54;12.50;99.90
4596;DHT22;2310;49.978;8.742;2024-03-06T15:24:56;12.60;99.90
4596;DHT22;2310;49.978;8.742;2024-03-06T15:28:58;12.40;99.90
4596;DHT22;2310;49.978;8.742;2024-03-06T15:33:00;12.40;99.90
4596;DHT22;2310;49.978;8.742;2024-03-06T15:37:04;12.50;99.90
4596;DHT22;2310;49.978;8.742;2024-03-06T15:41:06;12.40;99.90
4596;DHT22;2310;49.978;8.742;2024-03-06T15:45:10;12.10;99.90
4596;DHT22;2310;49.978;8.742;2024-03-06T15:49:20;12.20;99.90
4596;DHT22;2310;49.978;8.742;2024-03-06T15:53:22;12.30;99.90
4596;DHT22;2310;49.978;8.742;2024-03-06T15:57:25;12.30;99.90
4596;DHT22;2310;49.978;8.742;2024-03-06T16:01:27;12.30;99.90
4596;DHT22;2310;49.978;8.742;2024-03-06T16:05:28;12.40;99.90
4596;DHT22;2310;49.978;8.742;2024-03-06T16:09:32;12.30;99.90
4596;DHT22;2310;49.978;8.742;2024-03-06T16:13:33;12.20;99.90
4596;DHT22;2310;49.978;8.742;2024-03-06T16:17:34;12.10;99.90
4596;DHT22;2310;49.978;8.742;2024-03-06T16:21:36;11.90;99.90
4596;DHT22;2310;49.978;8.742;2024-03-06T16:25:44;11.90;99.90
4596;DHT22;2310;49.978;8.742;2024-03-06T16:29:47;11.90;99.90
4596;DHT22;2310;49.978;8.742;2024-03-06T16:33:49;12.00;99.90
4596;DHT22;2310;49.978;8.742;2024-03-06T16:37:51;11.90;99.90
4596;DHT22;2310;49.978;8.742;2024-03-06T16:41:55;11.90;99.90
4596;DHT22;2310;49.978;8.742;2024-03-06T16:45:57;11.80;99.90
4596;DHT22;2310;49.978;8.742;2024-03-06T16:49:58;11.70;99.90
4596;DHT22;2310;49.978;8.742;2024-03-06T16:54:01;11.70;99.90
4596;DHT22;2310;49.978;8.742;2024-03-06T16:58:03;11.50;99.90
4596;DHT22;2310;49.978;8.742;2024-03-06T17:02:06;11.40;99.90
4596;DHT22;2310;49.978;8.742;2024-03-06T17:06:07;11.30;99.90
4596;DHT22;2310;49.978;8.742;2024-03-06T17:10:09;11.20;99.90
4596;DHT22;2310;49.978;8.742;2024-03-06T17:14:11;11.30;99.90
4596;DHT22;2310;49.978;8.742;2024-03-06T17:18:13;11.30;99.90
4596;DHT22;2310;49.978;8.742;2024-03-06T17:22:15;11.30;99.90
4596;DHT22;2310;49.978;8.742;2024-03-06T17:26:16;11.10;99.90
4596;DHT22;2310;49.978;8.742;2024-03-06T17:30:18;11.10;99.90
4596;DHT22;2310;49.978;8.742;2024-03-06T17:34:20;11.00;99.90
4596;DHT22;2310;49.978;8.742;2024-03-06T17:38:21;11.10;99.90
4596;DHT22;2310;49.978;8.742;2024-03-06T17:42:25;11.00;99.90
4596;DHT22;2310;49.978;8.742;2024-03-06T17:46:29;10.90;99.90
4596;DHT22;2310;49.978;8.742;2024-03-06T17:50:32;11.00;99.90
4596;DHT22;2310;49.978;8.742;2024-03-06T17:54:35;10.90;99.90
4596;DHT22;2310;49.978;8.742;2024-03-06T17:58:37;11.00;99.90
4596;DHT22;2310;49.978;8.742;2024-03-06T18:02:38;10.90;99.90
4596;DHT22;2310;49.978;8.742;2024-03-06T18:06:40;11.00;99.90
4596;DHT22;2310;49.978;8.742;2024-03-06T18:10:42;10.90;99.90
4596;DHT22;2310;49.978;8.742;2024-03-06T18:14:44;10.80;99.90
4596;DHT22;2310;49.978;8.742;2024-03-06T18:18:45;10.70;99.90
4596;DHT22;2310;49.978;8.742;2024-03-06T18:22:47;10.70;99.90
4596;DHT22;2310;49.978;8.742;2024-03-06T18:26:48;10.60;99.90
4596;DHT22;2310;49.978;8.742;2024-03-06T18:30:56;10.50;99.90
4596;DHT22;2310;49.978;8.742;2024-03-06T18:35:22;10.40;99.90
4596;DHT22;2310;49.978;8.742;2024-03-06T18:39:47;10.40;99.90
4596;DHT22;2310;49.978;8.742;2024-03-06T18:43:55;10.40;99.90
4596;DHT22;2310;49.978;8.742;2024-03-06T18:48:03;10.50;99.90
4596;DHT22;2310;49.978;8.742;2024-03-06T18:52:05;10.40;99.90
4596;DHT22;2310;49.978;8.742;2024-03-06T18:56:07;10.40;99.90
4596;DHT22;2310;49.978;8.742;2024-03-06T19:00:09;10.30;99.90
4596;DHT22;2310;49.978;8.742;2024-03-06T19:04:12;10.30;99.90
4596;DHT22;2310;49.978;8.742;2024-03-06T19:08:14;10.20;99.90
4596;DHT22;2310;49.978;8.742;2024-03-06T19:12:16;10.10;99.90
4596;DHT22;2310;49.978;8.742;2024-03-06T19:16:18;10.00;99.90
4596;DHT22;2310;49.978;8.742;2024-03-06T19:20:21;9.90;99.90
4596;DHT22;2310;49.978;8.742;2024-03-06T19:24:23;9.90;99.90
4596;DHT22;2310;49.978;8.742;2024-03-06T19:28:25;9.90;99.90
4596;DHT22;2310;49.978;8.742;2024-03-06T19:32:27;10.00;99.90
4596;DHT22;2310;49.978;8.742;2024-03-06T19:36:30;10.00;99.90
4596;DHT22;2310;49.978;8.742;2024-03-06T19:40:32;9.90;99.90
4596;DHT22;2310;49.978;8.742;2024-03-06T19:44:34;9.90;99.90
4596;DHT22;2310;49.978;8.742;2024-03-06T19:48:36;9.70;99.90
4596;DHT22;2310;49.978;8.742;2024-03-06T19:52:39;9.60;99.90
4596;DHT22;2310;49.978;8.742;2024-03-06T19:56:41;9.50;99.90
4596;DHT22;2310;49.978;8.742;2024-03-06T20:00:43;9.50;99.90
4596;DHT22;2310;49.978;8.742;2024-03-06T20:04:45;9.50;99.90
4596;DHT22;2310;49.978;8.742;2024-03-06T20:08:47;9.50;99.90
4596;DHT22;2310;49.978;8.742;2024-03-06T20:12:49;9.40;99.90
4596;DHT22;2310;49.978;8.742;2024-03-06T20:16:51;9.30;99.90
4596;DHT22;2310;49.978;8.742;2024-03-06T20:20:53;9.40;99.90
4596;DHT22;2310;49.978;8.742;2024-03-06T20:24:55;9.20;99.90
4596;DHT22;2310;49.978;8.742;2024-03-06T20:28:56;9.30;99.90
4596;DHT22;2310;49.978;8.742;2024-03-06T20:32:58;9.40;99.90
4596;DHT22;2310;49.978;8.742;2024-03-06T20:37:00;9.30;99.90
4596;DHT22;2310;49.978;8.742;2024-03-06T20:41:02;9.30;99.90
4596;DHT22;2310;49.978;8.742;2024-03-06T20:45:05;9.30;99.90
4596;DHT22;2310;49.978;8.742;2024-03-06T20:49:06;9.30;99.90
4596;DHT22;2310;49.978;8.742;2024-03-06T20:53:08;9.30;99.90
4596;DHT22;2310;49.978;8.742;2024-03-06T20:57:16;9.30;99.90
4596;DHT22;2310;49.978;8.742;2024-03-06T21:01:19;9.20;99.90
4596;DHT22;2310;49.978;8.742;2024-03-06T21:05:22;9.20;99.90
4596;DHT22;2310;49.978;8.742;2024-03-06T21:09:24;9.10;99.90
4596;DHT22;2310;49.978;8.742;2024-03-06T21:13:26;9.20;99.90
4596;DHT22;2310;49.978;8.742;2024-03-06T21:17:28;9.00;99.90
4596;DHT22;2310;49.978;8.742;2024-03-06T21:21:30;9.00;99.90
4596;DHT22;2310;49.978;8.742;2024-03-06T21:25:31;9.00;99.90
4596;DHT22;2310;49.978;8.742;2024-03-06T21:29:33;9.00;99.90
4596;DHT22;2310;49.978;8.742;2024-03-06T21:33:34;9.10;99.90
4596;DHT22;2310;49.978;8.742;2024-03-06T21:37:36;9.10;99.90
4596;DHT22;2310;49.978;8.742;2024-03-06T21:41:38;9.10;99.90
4596;DHT22;2310;49.978;8.742;2024-03-06T21:45:39;9.10;99.90
4596;DHT22;2310;49.978;8.742;2024-03-06T21:49:41;9.00;99.90
4596;DHT22;2310;49.978;8.742;2024-03-06T21:53:42;9.00;99.90
4596;DHT22;2310;49.978;8.742;2024-03-06T21:57:44;9.00;99.90
4596;DHT22;2310;49.978;8.742;2024-03-06T22:01:46;8.80;99.90
4596;DHT22;2310;49.978;8.742;2024-03-06T22:05:47;8.70;99.90
4596;DHT22;2310;49.978;8.742;2024-03-06T22:09:49;8.80;99.90
4596;DHT22;2310;49.978;8.742;2024-03-06T22:13:51;8.80;99.90
4596;DHT22;2310;49.978;8.742;2024-03-06T22:17:52;9.00;99.90
4596;DHT22;2310;49.978;8.742;2024-03-06T22:21:54;8.90;99.90
4596;DHT22;2310;49.978;8.742;2024-03-06T22:25:55;8.90;99.90
4596;DHT22;2310;49.978;8.742;2024-03-06T22:29:57;9.00;99.90
4596;DHT22;2310;49.978;8.742;2024-03-06T22:33:59;9.00;99.90
4596;DHT22;2310;49.978;8.742;2024-03-06T22:38:09;8.80;99.90
4596;DHT22;2310;49.978;8.742;2024-03-06T22:42:11;8.80;99.90
4596;DHT22;2310;49.978;8.742;2024-03-06T22:46:12;8.80;99.90
4596;DHT22;2310;49.978;8.742;2024-03-06T22:50:14;8.70;99.90
4596;DHT22;2310;49.978;8.742;2024-03-06T22:54:16;8.50;99.90
4596;DHT22;2310;49.978;8.742;2024-03-06T22:58:17;8.60;99.90
4596;DHT22;2310;49.978;8.742;2024-03-06T23:02:19;8.50;99.90
4596;DHT22;2310;49.978;8.742;2024-03-06T23:06:21;8.50;99.90
4596;DHT22;2310;49.978;8.742;2024-03-06T23:10:22;8.50;99.90
4596;DHT22;2310;49.978;8.742;2024-03-06T23:14:24;8.40;99.90
4596;DHT22;2310;49.978;8.742;2024-03-06T23:18:26;8.30;99.90
4596;DHT22;2310;49.978;8.742;2024-03-06T23:22:28;8.30;99.90
4596;DHT22;2310;49.978;8.742;2024-03-06T23:26:30;8.20;99.90
4596;DHT22;2310;49.978;8.742;2024-03-06T23:30:32;8.20;99.90
4596;DHT22;2310;49.978;8.742;2024-03-06T23:34:34;8.20;99.90
4596;DHT22;2310;49.978;8.742;2024-03-06T23:38:35;8.20;99.90
4596;DHT22;2310;49.978;8.742;2024-03-06T23:42:37;8.10;99.90
4596;DHT22;2310;49.978;8.742;2024-03-06T23:46:38;8.10;99.90
4596;DHT22;2310;49.978;8.742;2024-03-06T23:50:40;8.00;99.90
4596;DHT22;2310;49.978;8.742;2024-03-06T23:54:41;8.00;99.90
4596;DHT22;2310;49.978;8.742;2024-03-06T23:58:43;8.00;99.90
